createdAt,value
2019-03-26T00:00:22.504Z,3.36
2019-03-26T00:01:22.455Z,3.35
2019-03-26T00:02:22.381Z,3.32
2019-03-26T00:03:22.345Z,3.20
2019-03-26T00:04:22.323Z,3.17
2019-03-26T00:05:22.288Z,3.24
2019-03-26T00:06:22.248Z,3.23
2019-03-26T00:07:22.201Z,3.18
2019-03-26T00:08:22.151Z,3.23
2019-03-26T00:09:22.119Z,3.15
2019-03-26T00:10:22.070Z,3.17
2019-03-26T00:11:22.028Z,3.13
2019-03-26T00:12:22.023Z,3.17
2019-03-26T00:13:21.971Z,3.20
2019-03-26T00:14:21.910Z,3.21
2019-03-26T00:15:21.854Z,3.24
2019-03-26T00:16:21.824Z,3.17
2019-03-26T00:17:21.842Z,3.11
2019-03-26T00:18:21.749Z,3.18
2019-03-26T00:19:21.717Z,3.17
2019-03-26T00:20:21.652Z,2.97
2019-03-26T00:21:21.611Z,3.06
2019-03-26T00:22:21.575Z,3.11
2019-03-26T00:23:21.526Z,3.13
2019-03-26T00:24:21.520Z,3.13
2019-03-26T00:25:21.462Z,3.11
2019-03-26T00:26:21.419Z,3.13
2019-03-26T00:27:21.390Z,3.06
2019-03-26T00:28:21.420Z,3.11
2019-03-26T00:29:21.323Z,3.06
2019-03-26T00:30:21.251Z,3.17
2019-03-26T00:31:21.233Z,3.06
2019-03-26T00:32:23.480Z,3.03
2019-03-26T00:33:21.166Z,3.03
2019-03-26T00:34:21.075Z,2.96
2019-03-26T00:35:21.053Z,2.90
2019-03-26T00:36:21.020Z,2.85
2019-03-26T00:37:20.971Z,2.74
2019-03-26T00:38:20.931Z,2.69
2019-03-26T00:39:20.874Z,2.78
2019-03-26T00:40:20.856Z,2.67
2019-03-26T00:41:20.805Z,2.60
2019-03-26T00:42:20.748Z,2.45
2019-03-26T00:43:20.713Z,2.35
2019-03-26T00:44:20.701Z,2.41
2019-03-26T00:45:20.646Z,2.36
2019-03-26T00:46:20.599Z,2.39
2019-03-26T00:47:20.564Z,2.35
2019-03-26T00:48:20.525Z,2.35
2019-03-26T00:49:20.484Z,2.46
2019-03-26T00:50:20.436Z,2.48
2019-03-26T00:51:20.413Z,2.54
2019-03-26T00:52:20.409Z,2.69
2019-03-26T00:53:20.334Z,2.82
2019-03-26T00:54:20.268Z,2.84
2019-03-26T00:55:22.859Z,2.96
2019-03-26T00:56:20.194Z,3.00
2019-03-26T00:57:20.148Z,2.99
2019-03-26T00:58:20.098Z,2.95
2019-03-26T00:59:20.086Z,2.97
2019-03-26T01:00:20.016Z,2.90
2019-03-26T01:01:19.992Z,2.93
2019-03-26T01:02:19.934Z,2.90
2019-03-26T01:03:19.917Z,2.95
2019-03-26T01:04:32.082Z,2.85
2019-03-26T01:05:19.816Z,2.93
2019-03-26T01:06:19.786Z,2.95
2019-03-26T01:07:19.755Z,2.90
2019-03-26T01:08:19.711Z,2.96
2019-03-26T01:09:19.678Z,2.95
2019-03-26T01:10:19.615Z,2.92
2019-03-26T01:11:19.589Z,3.02
2019-03-26T01:12:19.532Z,3.10
2019-03-26T01:13:19.480Z,3.08
2019-03-26T01:14:19.464Z,3.08
2019-03-26T01:15:19.412Z,3.08
2019-03-26T01:16:19.379Z,3.02
2019-03-26T01:17:19.332Z,3.08
2019-03-26T01:18:19.295Z,3.14
2019-03-26T01:19:19.312Z,3.15
2019-03-26T01:20:19.200Z,3.14
2019-03-26T01:21:19.155Z,3.20
2019-03-26T01:22:19.114Z,3.11
2019-03-26T01:23:19.098Z,3.15
2019-03-26T01:24:19.034Z,3.17
2019-03-26T01:25:19.002Z,3.21
2019-03-26T01:26:18.948Z,3.23
2019-03-26T01:27:18.907Z,3.20
2019-03-26T01:28:18.915Z,3.36
2019-03-26T01:29:18.863Z,3.28
2019-03-26T01:30:18.779Z,3.39
2019-03-26T01:31:18.756Z,3.39
2019-03-26T01:32:18.721Z,3.26
2019-03-26T01:33:18.711Z,3.29
2019-03-26T01:34:18.620Z,3.26
2019-03-26T01:35:18.658Z,3.29
2019-03-26T01:36:18.539Z,3.24
2019-03-26T01:37:18.496Z,3.24
2019-03-26T01:38:18.467Z,3.24
2019-03-26T01:39:18.417Z,3.24
2019-03-26T01:40:18.382Z,3.24
2019-03-26T01:41:18.357Z,3.23
2019-03-26T01:42:18.329Z,3.26
2019-03-26T01:43:18.246Z,3.26
2019-03-26T01:44:18.217Z,3.21
2019-03-26T01:45:18.187Z,3.26
2019-03-26T01:46:18.131Z,3.24
2019-03-26T01:47:18.108Z,3.18
2019-03-26T01:48:18.074Z,3.33
2019-03-26T01:49:18.007Z,3.17
2019-03-26T01:50:17.964Z,3.36
2019-03-26T01:51:17.947Z,3.24
2019-03-26T01:52:17.887Z,3.32
2019-03-26T01:53:20.166Z,3.26
2019-03-26T01:54:17.818Z,3.29
2019-03-26T01:55:17.780Z,3.23
2019-03-26T01:56:17.727Z,3.24
2019-03-26T01:57:17.671Z,3.24
2019-03-26T01:58:17.646Z,3.32
2019-03-26T01:59:17.620Z,3.31
2019-03-26T02:00:17.559Z,3.32
2019-03-26T02:01:17.529Z,3.14
2019-03-26T02:02:17.488Z,3.20
2019-03-26T02:03:17.445Z,3.23
2019-03-26T02:04:17.437Z,3.23
2019-03-26T02:05:17.356Z,3.17
2019-03-26T02:06:17.300Z,3.20
2019-03-26T02:07:17.267Z,3.29
2019-03-26T02:08:17.247Z,3.35
2019-03-26T02:09:17.184Z,3.35
2019-03-26T02:10:17.155Z,3.24
2019-03-26T02:11:17.109Z,3.24
2019-03-26T02:12:17.139Z,3.21
2019-03-26T02:13:17.032Z,3.24
2019-03-26T02:14:17.029Z,3.20
2019-03-26T02:15:16.942Z,3.20
2019-03-26T02:16:16.898Z,3.28
2019-03-26T02:17:16.896Z,3.39
2019-03-26T02:18:16.862Z,3.45
2019-03-26T02:19:16.783Z,3.39
2019-03-26T02:20:16.739Z,3.31
2019-03-26T02:21:16.713Z,3.42
2019-03-26T02:22:16.672Z,3.48
2019-03-26T02:23:16.657Z,3.45
2019-03-26T02:24:16.572Z,3.47
2019-03-26T02:25:16.542Z,3.43
2019-03-26T02:26:16.520Z,3.47
2019-03-26T02:27:16.463Z,3.43
2019-03-26T02:28:16.422Z,3.45
2019-03-26T02:29:16.366Z,3.60
2019-03-26T02:30:16.345Z,3.54
2019-03-26T02:31:16.312Z,3.54
2019-03-26T02:32:16.261Z,3.51
2019-03-26T02:33:16.227Z,3.55
2019-03-26T02:34:16.177Z,3.55
2019-03-26T02:35:18.168Z,3.57
2019-03-26T02:36:16.097Z,3.58
2019-03-26T02:37:16.043Z,3.58
2019-03-26T02:38:16.028Z,3.52
2019-03-26T02:39:15.958Z,3.58
2019-03-26T02:40:15.925Z,3.68
2019-03-26T02:41:16.006Z,3.58
2019-03-26T02:42:15.856Z,3.60
2019-03-26T02:43:15.810Z,3.72
2019-03-26T02:44:15.792Z,3.75
2019-03-26T02:45:15.742Z,3.72
2019-03-26T02:46:15.693Z,3.69
2019-03-26T02:47:15.688Z,3.66
2019-03-26T02:48:15.597Z,3.69
2019-03-26T02:49:15.574Z,3.72
2019-03-26T02:50:15.541Z,3.69
2019-03-26T02:51:15.516Z,3.83
2019-03-26T02:52:15.427Z,3.70
2019-03-26T02:53:15.398Z,3.75
2019-03-26T02:54:15.420Z,3.70
2019-03-26T02:55:15.333Z,3.69
2019-03-26T02:56:15.287Z,3.69
2019-03-26T02:57:15.240Z,3.73
2019-03-26T02:58:15.214Z,3.75
2019-03-26T02:59:15.180Z,3.66
2019-03-26T03:00:15.115Z,3.69
2019-03-26T03:01:15.075Z,3.68
2019-03-26T03:02:15.065Z,3.73
2019-03-26T03:03:14.982Z,3.70
2019-03-26T03:04:14.956Z,3.75
2019-03-26T03:05:14.925Z,3.76
2019-03-26T03:06:14.849Z,3.83
2019-03-26T03:07:14.818Z,3.72
2019-03-26T03:08:14.802Z,3.76
2019-03-26T03:09:14.742Z,3.76
2019-03-26T03:10:14.697Z,3.57
2019-03-26T03:11:14.680Z,3.47
2019-03-26T03:12:14.724Z,3.55
2019-03-26T03:13:14.582Z,3.57
2019-03-26T03:14:14.548Z,3.58
2019-03-26T03:15:14.505Z,3.55
2019-03-26T03:16:14.507Z,3.61
2019-03-26T03:17:14.405Z,3.54
2019-03-26T03:18:14.406Z,3.68
2019-03-26T03:19:16.088Z,3.70
2019-03-26T03:20:14.337Z,3.55
2019-03-26T03:21:14.294Z,3.70
2019-03-26T03:22:14.213Z,3.62
2019-03-26T03:23:14.157Z,3.75
2019-03-26T03:24:14.147Z,3.68
2019-03-26T03:25:14.114Z,3.80
2019-03-26T03:26:14.102Z,3.83
2019-03-26T03:27:14.143Z,3.84
2019-03-26T03:28:13.977Z,3.83
2019-03-26T03:29:13.934Z,3.79
2019-03-26T03:30:13.930Z,3.83
2019-03-26T03:31:13.853Z,3.76
2019-03-26T03:32:13.809Z,3.86
2019-03-26T03:33:13.953Z,3.78
2019-03-26T03:34:13.821Z,3.76
2019-03-26T03:35:13.688Z,3.75
2019-03-26T03:36:13.659Z,3.75
2019-03-26T03:37:13.611Z,3.79
2019-03-26T03:38:13.575Z,3.80
2019-03-26T03:39:13.539Z,3.84
2019-03-26T03:40:13.496Z,3.79
2019-03-26T03:41:13.446Z,3.80
2019-03-26T03:42:13.408Z,3.83
2019-03-26T03:43:13.351Z,3.72
2019-03-26T03:44:13.322Z,3.75
2019-03-26T03:45:13.292Z,3.83
2019-03-26T03:46:13.256Z,3.78
2019-03-26T03:47:13.201Z,3.83
2019-03-26T03:48:13.170Z,3.93
2019-03-26T03:49:13.139Z,3.94
2019-03-26T03:50:13.074Z,3.93
2019-03-26T03:51:13.049Z,3.97
2019-03-26T03:52:12.989Z,3.96
2019-03-26T03:53:12.993Z,3.94
2019-03-26T03:54:12.943Z,3.90
2019-03-26T03:55:12.881Z,3.90
2019-03-26T03:56:12.826Z,3.93
2019-03-26T03:57:12.776Z,3.90
2019-03-26T03:58:12.735Z,3.90
2019-03-26T03:59:12.798Z,3.87
2019-03-26T04:00:12.692Z,3.86
2019-03-26T04:01:12.613Z,3.88
2019-03-26T04:02:12.613Z,3.94
2019-03-26T04:03:12.553Z,3.94
2019-03-26T04:04:12.523Z,3.97
2019-03-26T04:05:12.474Z,3.97
2019-03-26T04:06:12.409Z,3.87
2019-03-26T04:07:12.404Z,3.83
2019-03-26T04:08:12.332Z,3.78
2019-03-26T04:09:12.924Z,3.80
2019-03-26T04:10:12.288Z,3.84
2019-03-26T04:11:12.246Z,3.79
2019-03-26T04:12:12.272Z,3.83
2019-03-26T04:13:12.141Z,3.75
2019-03-26T04:14:12.127Z,3.73
2019-03-26T04:15:12.074Z,3.76
2019-03-26T04:16:12.009Z,3.73
2019-03-26T04:17:11.995Z,3.83
2019-03-26T04:18:11.968Z,3.78
2019-03-26T04:19:11.997Z,3.76
2019-03-26T04:20:11.852Z,3.69
2019-03-26T04:21:11.816Z,3.73
2019-03-26T04:22:11.776Z,3.78
2019-03-26T04:23:11.731Z,3.69
2019-03-26T04:24:11.685Z,3.66
2019-03-26T04:25:11.660Z,3.69
2019-03-26T04:26:11.613Z,3.57
2019-03-26T04:27:11.566Z,3.58
2019-03-26T04:28:11.606Z,3.61
2019-03-26T04:29:11.506Z,3.72
2019-03-26T04:30:11.570Z,3.65
2019-03-26T04:31:11.431Z,3.61
2019-03-26T04:32:11.365Z,3.60
2019-03-26T04:33:11.337Z,3.54
2019-03-26T04:34:11.296Z,3.55
2019-03-26T04:35:11.243Z,3.58
2019-03-26T04:36:24.542Z,3.62
2019-03-26T04:37:11.171Z,3.70
2019-03-26T04:38:11.127Z,3.72
2019-03-26T04:39:11.096Z,3.66
2019-03-26T04:40:11.044Z,3.70
2019-03-26T04:41:11.000Z,3.68
2019-03-26T04:42:11.050Z,3.69
2019-03-26T04:43:10.926Z,3.79
2019-03-26T04:44:10.894Z,3.69
2019-03-26T04:45:10.830Z,3.73
2019-03-26T04:46:10.798Z,3.73
2019-03-26T04:47:10.755Z,3.79
2019-03-26T04:48:10.705Z,3.80
2019-03-26T04:49:10.666Z,3.75
2019-03-26T04:50:10.652Z,3.83
2019-03-26T04:51:10.610Z,3.83
2019-03-26T04:52:10.550Z,3.83
2019-03-26T04:53:10.521Z,3.76
2019-03-26T04:54:10.471Z,3.79
2019-03-26T04:55:10.460Z,3.83
2019-03-26T04:56:10.398Z,3.84
2019-03-26T04:57:10.358Z,3.83
2019-03-26T04:58:10.323Z,3.84
2019-03-26T04:59:10.283Z,3.84
2019-03-26T05:00:10.241Z,3.87
2019-03-26T05:01:10.186Z,3.91
2019-03-26T05:02:10.202Z,3.87
2019-03-26T05:03:10.132Z,3.93
2019-03-26T05:04:10.070Z,3.94
2019-03-26T05:05:12.339Z,3.91
2019-03-26T05:06:09.987Z,3.91
2019-03-26T05:07:09.949Z,3.88
2019-03-26T05:08:09.906Z,3.98
2019-03-26T05:09:09.877Z,3.94
2019-03-26T05:10:09.830Z,4.04
2019-03-26T05:11:09.799Z,3.96
2019-03-26T05:12:09.744Z,3.97
2019-03-26T05:13:09.702Z,3.93
2019-03-26T05:14:09.665Z,3.97
2019-03-26T05:15:09.634Z,3.97
2019-03-26T05:16:09.593Z,4.02
2019-03-26T05:17:09.548Z,4.06
2019-03-26T05:18:09.516Z,4.05
2019-03-26T05:19:09.473Z,3.97
2019-03-26T05:20:09.421Z,4.00
2019-03-26T05:21:09.436Z,4.04
2019-03-26T05:22:09.346Z,4.00
2019-03-26T05:23:09.323Z,3.97
2019-03-26T05:24:09.259Z,4.08
2019-03-26T05:25:09.224Z,3.96
2019-03-26T05:26:09.186Z,3.98
2019-03-26T05:27:09.144Z,4.00
2019-03-26T05:28:09.170Z,4.04
2019-03-26T05:29:09.060Z,4.08
2019-03-26T05:30:09.009Z,4.02
2019-03-26T05:31:08.965Z,4.12
2019-03-26T05:32:08.953Z,4.09
2019-03-26T05:33:08.918Z,4.05
2019-03-26T05:34:08.846Z,4.14
2019-03-26T05:35:08.836Z,4.14
2019-03-26T05:36:08.784Z,4.08
2019-03-26T05:37:08.742Z,4.16
2019-03-26T05:38:08.708Z,4.12
2019-03-26T05:39:08.656Z,4.22
2019-03-26T05:40:08.647Z,4.22
2019-03-26T05:41:10.519Z,4.14
2019-03-26T05:42:08.561Z,4.27
2019-03-26T05:43:08.500Z,4.34
2019-03-26T05:44:08.461Z,4.41
2019-03-26T05:45:08.407Z,4.40
2019-03-26T05:46:08.383Z,4.41
2019-03-26T05:47:08.337Z,4.36
2019-03-26T05:48:08.290Z,4.45
2019-03-26T05:49:08.289Z,4.40
2019-03-26T05:50:08.207Z,4.45
2019-03-26T05:51:08.196Z,4.47
2019-03-26T05:52:08.123Z,4.54
2019-03-26T05:53:08.122Z,4.58
2019-03-26T05:54:08.067Z,4.65
2019-03-26T05:55:08.015Z,4.54
2019-03-26T05:56:07.981Z,4.59
2019-03-26T05:57:07.933Z,4.66
2019-03-26T05:58:07.889Z,4.75
2019-03-26T05:59:07.872Z,4.59
2019-03-26T06:00:07.831Z,4.66
2019-03-26T06:01:07.791Z,4.72
2019-03-26T06:02:14.307Z,4.70
2019-03-26T06:03:07.682Z,4.73
2019-03-26T06:04:09.558Z,4.70
2019-03-26T06:05:07.605Z,4.78
2019-03-26T06:06:07.611Z,4.75
2019-03-26T06:07:07.531Z,4.86
2019-03-26T06:08:07.511Z,4.82
2019-03-26T06:09:07.482Z,4.92
2019-03-26T06:10:07.436Z,4.94
2019-03-26T06:11:07.374Z,4.88
2019-03-26T06:12:07.353Z,4.97
2019-03-26T06:13:07.292Z,5.02
2019-03-26T06:14:07.244Z,5.02
2019-03-26T06:15:07.205Z,4.96
2019-03-26T06:16:07.161Z,5.20
2019-03-26T06:17:07.127Z,5.24
2019-03-26T06:18:07.106Z,5.24
2019-03-26T06:19:07.067Z,5.30
2019-03-26T06:20:07.023Z,5.33
2019-03-26T06:21:07.051Z,5.27
2019-03-26T06:22:06.923Z,5.39
2019-03-26T06:23:06.976Z,5.35
2019-03-26T06:24:06.873Z,5.38
2019-03-26T06:25:06.819Z,5.46
2019-03-26T06:26:06.771Z,5.45
2019-03-26T06:27:06.720Z,5.48
2019-03-26T06:28:06.734Z,5.51
2019-03-26T06:29:06.646Z,5.64
2019-03-26T06:30:06.625Z,5.72
2019-03-26T06:31:06.565Z,5.74
2019-03-26T06:32:06.536Z,5.74
2019-03-26T06:33:06.486Z,5.78
2019-03-26T06:34:06.469Z,5.78
2019-03-26T06:35:06.414Z,5.83
2019-03-26T06:36:06.369Z,5.86
2019-03-26T06:37:17.420Z,5.89
2019-03-26T06:38:06.324Z,6.03
2019-03-26T06:39:06.264Z,6.08
2019-03-26T06:40:06.218Z,6.19
2019-03-26T06:41:06.180Z,6.19
2019-03-26T06:42:06.150Z,6.18
2019-03-26T06:43:06.102Z,6.00
2019-03-26T06:44:06.106Z,6.01
2019-03-26T06:45:06.046Z,6.04
2019-03-26T06:46:05.996Z,6.09
2019-03-26T06:47:05.961Z,6.15
2019-03-26T06:48:05.889Z,6.17
2019-03-26T06:49:05.860Z,5.97
2019-03-26T06:50:05.860Z,6.00
2019-03-26T06:51:05.815Z,6.04
2019-03-26T06:52:05.748Z,6.06
2019-03-26T06:53:05.695Z,6.14
2019-03-26T06:54:05.659Z,6.08
2019-03-26T06:55:05.616Z,6.01
2019-03-26T06:56:05.606Z,6.01
2019-03-26T06:57:05.553Z,6.03
2019-03-26T06:58:05.515Z,6.01
2019-03-26T06:59:05.485Z,5.91
2019-03-26T07:00:07.142Z,5.97
2019-03-26T07:01:05.550Z,6.04
2019-03-26T07:02:05.371Z,5.93
2019-03-26T07:03:05.310Z,5.90
2019-03-26T07:04:05.302Z,5.93
2019-03-26T07:05:05.237Z,6.09
2019-03-26T07:06:05.197Z,6.01
2019-03-26T07:07:05.150Z,6.06
2019-03-26T07:08:05.117Z,6.19
2019-03-26T07:09:05.082Z,6.17
2019-03-26T07:10:05.089Z,6.25
2019-03-26T07:11:05.016Z,6.18
2019-03-26T07:12:07.707Z,6.28
2019-03-26T07:13:04.910Z,6.30
2019-03-26T07:14:04.895Z,6.43
2019-03-26T07:15:05.469Z,6.43
2019-03-26T07:16:04.813Z,6.44
2019-03-26T07:17:04.772Z,6.38
2019-03-26T07:18:04.805Z,6.28
2019-03-26T07:19:04.695Z,6.46
2019-03-26T07:20:04.690Z,6.56
2019-03-26T07:21:04.679Z,6.76
2019-03-26T07:22:04.563Z,6.80
2019-03-26T07:23:04.520Z,6.67
2019-03-26T07:24:04.541Z,6.88
2019-03-26T07:25:04.501Z,6.87
2019-03-26T07:26:04.451Z,6.77
2019-03-26T07:27:04.381Z,6.95
2019-03-26T07:28:04.342Z,6.91
2019-03-26T07:29:04.339Z,6.80
2019-03-26T07:30:04.259Z,6.66
2019-03-26T07:31:04.210Z,6.71
2019-03-26T07:32:04.206Z,6.76
2019-03-26T07:33:04.153Z,6.97
2019-03-26T07:34:07.116Z,7.12
2019-03-26T07:35:04.080Z,7.06
2019-03-26T07:36:04.020Z,7.10
2019-03-26T07:37:04.000Z,7.10
2019-03-26T07:38:03.966Z,7.23
2019-03-26T07:39:03.908Z,7.27
2019-03-26T07:40:03.888Z,7.25
2019-03-26T07:41:03.861Z,7.31
2019-03-26T07:42:03.816Z,7.07
2019-03-26T07:43:03.788Z,7.07
2019-03-26T07:44:03.729Z,6.84
2019-03-26T07:45:03.689Z,6.81
2019-03-26T07:46:03.648Z,6.77
2019-03-26T07:47:03.612Z,6.69
2019-03-26T07:48:03.566Z,6.89
2019-03-26T07:49:03.639Z,6.85
2019-03-26T07:50:03.501Z,6.91
2019-03-26T07:51:03.486Z,6.98
2019-03-26T07:52:03.403Z,7.09
2019-03-26T07:53:03.377Z,6.91
2019-03-26T07:54:03.374Z,6.85
2019-03-26T07:55:03.434Z,6.99
2019-03-26T07:56:03.275Z,7.05
2019-03-26T07:57:03.227Z,7.05
2019-03-26T07:58:03.178Z,7.07
2019-03-26T07:59:03.135Z,7.17
2019-03-26T08:00:03.131Z,7.23
2019-03-26T08:01:03.074Z,7.23
2019-03-26T08:02:03.028Z,7.13
2019-03-26T08:03:02.991Z,7.23
2019-03-26T08:04:03.482Z,7.10
2019-03-26T08:05:02.908Z,7.20
2019-03-26T08:06:02.911Z,7.17
2019-03-26T08:07:02.845Z,7.12
2019-03-26T08:08:02.836Z,7.10
2019-03-26T08:09:02.776Z,7.27
2019-03-26T08:10:02.759Z,7.21
2019-03-26T08:11:02.791Z,7.32
2019-03-26T08:12:02.648Z,7.16
2019-03-26T08:13:02.626Z,7.17
2019-03-26T08:14:02.575Z,7.32
2019-03-26T08:15:02.568Z,7.40
2019-03-26T08:16:02.526Z,7.43
2019-03-26T08:17:02.537Z,7.16
2019-03-26T08:18:02.434Z,7.09
2019-03-26T08:19:02.386Z,7.09
2019-03-26T08:20:02.372Z,7.09
2019-03-26T08:21:02.378Z,7.07
2019-03-26T08:22:02.285Z,7.07
2019-03-26T08:23:02.315Z,6.97
2019-03-26T08:24:02.194Z,6.95
2019-03-26T08:25:02.159Z,6.79
2019-03-26T08:26:02.136Z,6.81
2019-03-26T08:27:02.093Z,6.87
2019-03-26T08:28:04.889Z,6.84
2019-03-26T08:29:02.083Z,6.84
2019-03-26T08:30:01.952Z,6.74
2019-03-26T08:31:01.918Z,6.69
2019-03-26T08:32:01.891Z,6.81
2019-03-26T08:33:01.859Z,6.85
2019-03-26T08:34:01.814Z,6.85
2019-03-26T08:35:01.807Z,6.94
2019-03-26T08:36:01.720Z,7.03
2019-03-26T08:37:01.707Z,7.16
2019-03-26T08:38:11.851Z,7.34
2019-03-26T08:39:01.615Z,7.39
2019-03-26T08:40:01.590Z,7.50
2019-03-26T08:41:01.539Z,7.61
2019-03-26T08:42:01.546Z,7.48
2019-03-26T08:43:01.486Z,7.58
2019-03-26T08:44:01.430Z,7.71
2019-03-26T08:45:01.458Z,7.67
2019-03-26T08:46:01.373Z,7.69
2019-03-26T08:47:01.291Z,7.53
2019-03-26T08:48:01.272Z,7.39
2019-03-26T08:49:01.265Z,7.43
2019-03-26T08:50:01.195Z,7.28
2019-03-26T08:51:01.148Z,7.25
2019-03-26T08:52:01.109Z,7.35
2019-03-26T08:53:01.083Z,7.50
2019-03-26T08:54:01.029Z,7.57
2019-03-26T08:55:04.245Z,7.49
2019-03-26T08:56:00.949Z,7.53
2019-03-26T08:57:01.000Z,7.48
2019-03-26T08:58:00.891Z,7.52
2019-03-26T08:59:00.849Z,7.52
2019-03-26T09:00:00.819Z,7.45
2019-03-26T09:01:00.760Z,7.09
2019-03-26T09:02:00.739Z,7.16
2019-03-26T09:03:00.718Z,7.23
2019-03-26T09:04:00.665Z,7.17
2019-03-26T09:05:00.619Z,7.16
2019-03-26T09:06:00.616Z,7.25
2019-03-26T09:07:00.545Z,7.12
2019-03-26T09:08:00.496Z,7.17
2019-03-26T09:09:00.495Z,7.17
2019-03-26T09:10:00.446Z,7.10
2019-03-26T09:11:00.416Z,7.06
2019-03-26T09:12:00.345Z,7.03
2019-03-26T09:13:00.330Z,7.07
2019-03-26T09:14:00.270Z,6.87
2019-03-26T09:15:00.397Z,6.77
2019-03-26T09:16:00.172Z,6.56
2019-03-26T09:17:00.174Z,6.54
2019-03-26T09:18:00.104Z,6.67
2019-03-26T09:19:00.070Z,6.73
2019-03-26T09:20:00.038Z,6.98
2019-03-26T09:21:00.000Z,7.07
2019-03-26T09:21:59.994Z,7.27
2019-03-26T09:22:59.921Z,7.46
2019-03-26T09:23:59.897Z,7.71
2019-03-26T09:24:59.861Z,7.71
2019-03-26T09:25:59.829Z,7.85
2019-03-26T09:26:59.750Z,7.85
2019-03-26T09:27:59.714Z,7.80
2019-03-26T09:28:59.692Z,7.90
2019-03-26T09:29:59.644Z,7.90
2019-03-26T09:30:59.603Z,7.71
2019-03-26T09:31:59.570Z,7.86
2019-03-26T09:32:59.561Z,7.97
2019-03-26T09:33:59.504Z,8.07
2019-03-26T09:34:59.447Z,8.36
2019-03-26T09:35:59.466Z,8.73
2019-03-26T09:36:59.428Z,8.61
2019-03-26T09:37:59.353Z,8.65
2019-03-26T09:38:59.288Z,8.61
2019-03-26T09:39:59.267Z,8.59
2019-03-26T09:40:59.228Z,8.52
2019-03-26T09:41:59.207Z,8.61
2019-03-26T09:42:59.144Z,8.73
2019-03-26T09:43:59.113Z,8.56
2019-03-26T09:44:59.077Z,8.37
2019-03-26T09:45:59.139Z,8.36
2019-03-26T09:46:58.987Z,8.25
2019-03-26T09:47:58.955Z,8.18
2019-03-26T09:48:58.925Z,8.08
2019-03-26T09:49:58.891Z,8.07
2019-03-26T09:50:58.837Z,8.04
2019-03-26T09:51:58.808Z,8.22
2019-03-26T09:52:58.777Z,8.20
2019-03-26T09:53:58.755Z,8.43
2019-03-26T09:54:58.687Z,8.29
2019-03-26T09:55:58.683Z,8.29
2019-03-26T09:56:58.634Z,8.25
2019-03-26T09:57:58.584Z,8.01
2019-03-26T09:58:58.547Z,8.10
2019-03-26T09:59:58.537Z,8.12
2019-03-26T10:00:58.463Z,7.93
2019-03-26T10:01:58.502Z,8.05
2019-03-26T10:02:58.378Z,7.90
2019-03-26T10:03:58.355Z,7.60
2019-03-26T10:04:58.346Z,7.46
2019-03-26T10:05:58.302Z,7.63
2019-03-26T10:06:58.259Z,7.55
2019-03-26T10:07:58.298Z,7.67
2019-03-26T10:08:58.172Z,7.71
2019-03-26T10:09:58.163Z,7.80
2019-03-26T10:10:58.104Z,7.97
2019-03-26T10:11:58.053Z,8.10
2019-03-26T10:12:58.015Z,8.30
2019-03-26T10:13:58.006Z,8.05
2019-03-26T10:14:57.964Z,8.00
2019-03-26T10:15:57.907Z,7.79
2019-03-26T10:16:57.863Z,7.64
2019-03-26T10:17:57.834Z,7.64
2019-03-26T10:18:57.784Z,7.53
2019-03-26T10:19:57.760Z,7.42
2019-03-26T10:20:57.736Z,7.40
2019-03-26T10:21:57.687Z,7.57
2019-03-26T10:22:57.639Z,7.58
2019-03-26T10:23:57.632Z,7.58
2019-03-26T10:24:57.642Z,7.64
2019-03-26T10:25:57.523Z,7.68
2019-03-26T10:26:57.504Z,7.69
2019-03-26T10:27:57.453Z,7.53
2019-03-26T10:28:57.404Z,7.42
2019-03-26T10:29:57.362Z,7.45
2019-03-26T10:30:57.331Z,7.53
2019-03-26T10:31:57.294Z,7.43
2019-03-26T10:32:57.266Z,7.52
2019-03-26T10:33:57.263Z,7.48
2019-03-26T10:34:57.187Z,7.50
2019-03-26T10:35:57.151Z,7.48
2019-03-26T10:36:57.107Z,7.52
2019-03-26T10:37:57.080Z,7.57
2019-03-26T10:39:05.892Z,7.67
2019-03-26T10:39:56.992Z,7.58
2019-03-26T10:40:56.944Z,7.63
2019-03-26T10:41:56.906Z,7.61
2019-03-26T10:42:56.875Z,7.69
2019-03-26T10:43:56.830Z,7.68
2019-03-26T10:44:56.792Z,7.86
2019-03-26T10:45:56.770Z,7.74
2019-03-26T10:46:56.730Z,7.83
2019-03-26T10:47:56.684Z,7.68
2019-03-26T10:48:56.637Z,7.69
2019-03-26T10:49:56.607Z,7.69
2019-03-26T10:50:56.557Z,7.71
2019-03-26T10:51:56.533Z,7.55
2019-03-26T10:52:56.500Z,7.72
2019-03-26T10:53:56.467Z,7.80
2019-03-26T10:54:56.433Z,8.11
2019-03-26T10:55:56.366Z,8.11
2019-03-26T10:56:56.332Z,8.45
2019-03-26T10:57:56.295Z,8.62
2019-03-26T10:58:56.264Z,8.23
2019-03-26T10:59:56.215Z,8.01
2019-03-26T11:00:56.179Z,8.36
2019-03-26T11:01:56.173Z,8.83
2019-03-26T11:02:56.112Z,9.14
2019-03-26T11:03:56.073Z,9.38
2019-03-26T11:04:56.028Z,9.48
2019-03-26T11:05:56.013Z,9.42
2019-03-26T11:06:55.996Z,9.26
2019-03-26T11:07:55.962Z,9.26
2019-03-26T11:08:55.895Z,9.54
2019-03-26T11:09:55.891Z,10.30
2019-03-26T11:10:55.809Z,10.27
2019-03-26T11:11:55.772Z,10.48
2019-03-26T11:12:55.740Z,10.12
2019-03-26T11:13:58.578Z,9.93
2019-03-26T11:14:55.672Z,9.94
2019-03-26T11:15:55.625Z,9.83
2019-03-26T11:16:55.588Z,9.90
2019-03-26T11:17:55.548Z,9.31
2019-03-26T11:18:55.521Z,9.72
2019-03-26T11:19:55.551Z,10.11
2019-03-26T11:21:02.735Z,10.27
2019-03-26T11:21:55.412Z,11.02
2019-03-26T11:22:55.406Z,11.24
2019-03-26T11:23:55.336Z,11.19
2019-03-26T11:24:55.344Z,11.51
2019-03-26T11:25:55.294Z,11.99
2019-03-26T11:26:55.253Z,11.73
2019-03-26T11:27:55.205Z,11.07
2019-03-26T11:28:55.185Z,11.02
2019-03-26T11:29:55.184Z,11.44
2019-03-26T11:30:55.118Z,11.95
2019-03-26T11:31:55.070Z,11.73
2019-03-26T11:32:55.043Z,11.21
2019-03-26T11:33:55.013Z,11.07
2019-03-26T11:34:54.998Z,10.70
2019-03-26T11:35:54.943Z,10.41
2019-03-26T11:36:54.908Z,10.05
2019-03-26T11:37:54.864Z,9.76
2019-03-26T11:38:54.871Z,9.47
2019-03-26T11:39:54.800Z,9.33
2019-03-26T11:40:54.778Z,9.42
2019-03-26T11:41:54.733Z,9.65
2019-03-26T11:42:54.713Z,9.43
2019-03-26T11:43:54.685Z,9.39
2019-03-26T11:44:54.694Z,9.39
2019-03-26T11:45:56.144Z,9.50
2019-03-26T11:46:54.573Z,9.32
2019-03-26T11:47:54.564Z,9.61
2019-03-26T11:48:54.507Z,9.54
2019-03-26T11:49:54.500Z,9.69
2019-03-26T11:50:54.441Z,9.71
2019-03-26T11:51:54.410Z,9.68
2019-03-26T11:52:54.389Z,9.66
2019-03-26T11:53:54.394Z,9.20
2019-03-26T11:54:54.298Z,9.14
2019-03-26T11:55:54.271Z,9.13
2019-03-26T11:56:54.234Z,8.91
2019-03-26T11:57:54.199Z,9.29
2019-03-26T11:58:54.178Z,9.42
2019-03-26T11:59:54.144Z,9.32
2019-03-26T12:00:54.143Z,9.31
2019-03-26T12:01:54.061Z,9.15
2019-03-26T12:02:54.061Z,9.35
2019-03-26T12:03:54.012Z,9.20
2019-03-26T12:04:54.023Z,8.92
2019-03-26T12:05:53.960Z,8.94
2019-03-26T12:06:53.890Z,8.92
2019-03-26T12:07:53.867Z,8.83
2019-03-26T12:08:53.890Z,8.77
2019-03-26T12:09:53.780Z,8.86
2019-03-26T12:10:53.769Z,9.38
2019-03-26T12:11:53.715Z,10.48
2019-03-26T12:12:53.690Z,11.00
2019-03-26T12:13:53.648Z,10.88
2019-03-26T12:14:53.646Z,10.82
2019-03-26T12:15:53.609Z,10.61
2019-03-26T12:16:53.606Z,10.23
2019-03-26T12:17:53.515Z,10.01
2019-03-26T12:18:53.482Z,9.89
2019-03-26T12:19:53.443Z,9.84
2019-03-26T12:20:53.442Z,9.76
2019-03-26T12:21:53.389Z,9.89
2019-03-26T12:22:53.357Z,9.87
2019-03-26T12:23:53.299Z,10.08
2019-03-26T12:24:53.288Z,10.07
2019-03-26T12:25:53.244Z,10.55
2019-03-26T12:26:53.252Z,10.55
2019-03-26T12:27:53.166Z,11.25
2019-03-26T12:28:53.132Z,11.65
2019-03-26T12:29:53.089Z,12.45
2019-03-26T12:30:53.081Z,11.19
2019-03-26T12:31:53.051Z,11.54
2019-03-26T12:32:53.010Z,11.51
2019-03-26T12:33:52.987Z,11.64
2019-03-26T12:34:52.937Z,11.54
2019-03-26T12:35:52.913Z,11.29
2019-03-26T12:36:52.882Z,10.82
2019-03-26T12:37:52.840Z,10.48
2019-03-26T12:38:52.807Z,10.18
2019-03-26T12:39:59.350Z,10.15
2019-03-26T12:40:52.759Z,9.69
2019-03-26T12:41:52.699Z,9.83
2019-03-26T12:42:52.693Z,9.68
2019-03-26T12:43:52.653Z,9.86
2019-03-26T12:44:52.598Z,9.99
2019-03-26T12:45:52.570Z,10.02
2019-03-26T12:46:52.548Z,10.07
2019-03-26T12:47:52.495Z,9.96
2019-03-26T12:48:52.469Z,10.07
2019-03-26T12:49:52.446Z,10.32
2019-03-26T12:50:52.411Z,10.32
2019-03-26T12:51:52.372Z,10.32
2019-03-26T12:52:52.335Z,10.08
2019-03-26T12:53:52.310Z,9.68
2019-03-26T12:54:52.304Z,9.86
2019-03-26T12:55:52.242Z,9.94
2019-03-26T12:56:52.197Z,10.11
2019-03-26T12:57:52.166Z,10.02
2019-03-26T12:58:52.154Z,9.68
2019-03-26T12:59:52.109Z,9.58
2019-03-26T13:00:52.074Z,9.69
2019-03-26T13:01:52.037Z,9.66
2019-03-26T13:02:51.990Z,9.68
2019-03-26T13:03:51.953Z,9.79
2019-03-26T13:04:51.939Z,9.83
2019-03-26T13:05:52.066Z,9.89
2019-03-26T13:06:51.890Z,9.89
2019-03-26T13:07:51.825Z,10.25
2019-03-26T13:08:51.802Z,10.05
2019-03-26T13:09:51.763Z,9.68
2019-03-26T13:10:53.899Z,9.79
2019-03-26T13:11:51.703Z,9.64
2019-03-26T13:12:51.653Z,9.87
2019-03-26T13:13:51.639Z,10.02
2019-03-26T13:14:51.622Z,10.09
2019-03-26T13:15:51.561Z,10.11